sensor_id;sensor_type;location;lat;lon;timestamp;temperature;humidity
21612;DHT22;47005;52.292;13.452;2023-02-28T00:00:34;4.60;95.40
21612;DHT22;47005;52.292;13.452;2023-02-28T00:03:01;4.60;95.40
21612;DHT22;47005;52.292;13.452;2023-02-28T00:05:27;4.60;95.50
21612;DHT22;47005;52.292;13.452;2023-02-28T00:07:54;4.60;95.50
21612;DHT22;47005;52.292;13.452;2023-02-28T00:10:23;4.50;95.40
21612;DHT22;47005;52.292;13.452;2023-02-28T00:12:52;4.50;95.40
21612;DHT22;47005;52.292;13.452;2023-02-28T00:15:19;4.50;95.50
21612;DHT22;47005;52.292;13.452;2023-02-28T00:17:45;4.40;95.60
21612;DHT22;47005;52.292;13.452;2023-02-28T00:20:12;4.50;95.60
21612;DHT22;47005;52.292;13.452;2023-02-28T00:22:40;4.50;95.60
21612;DHT22;47005;52.292;13.452;2023-02-28T00:25:07;4.50;95.60
21612;DHT22;47005;52.292;13.452;2023-02-28T00:27:35;4.50;95.70
21612;DHT22;47005;52.292;13.452;2023-02-28T00:30:01;4.50;95.70
21612;DHT22;47005;52.292;13.452;2023-02-28T00:32:26;4.60;95.70
21612;DHT22;47005;52.292;13.452;2023-02-28T00:34:52;4.50;95.70
21612;DHT22;47005;52.292;13.452;2023-02-28T00:37:18;4.50;95.80
21612;DHT22;47005;52.292;13.452;2023-02-28T00:39:43;4.50;95.80
21612;DHT22;47005;52.292;13.452;2023-02-28T00:42:09;4.50;95.90
21612;DHT22;47005;52.292;13.452;2023-02-28T00:44:35;4.40;95.90
21612;DHT22;47005;52.292;13.452;2023-02-28T00:47:00;4.40;95.90
21612;DHT22;47005;52.292;13.452;2023-02-28T00:49:27;4.40;95.90
21612;DHT22;47005;52.292;13.452;2023-02-28T00:51:54;4.40;95.90
21612;DHT22;47005;52.292;13.452;2023-02-28T00:54:20;4.40;96.00
21612;DHT22;47005;52.292;13.452;2023-02-28T00:56:46;4.50;96.00
21612;DHT22;47005;52.292;13.452;2023-02-28T00:59:16;4.40;96.00
21612;DHT22;47005;52.292;13.452;2023-02-28T01:01:43;4.40;96.10
21612;DHT22;47005;52.292;13.452;2023-02-28T01:04:09;4.40;96.10
21612;DHT22;47005;52.292;13.452;2023-02-28T01:06:35;4.40;96.10
21612;DHT22;47005;52.292;13.452;2023-02-28T01:09:02;4.40;96.20
21612;DHT22;47005;52.292;13.452;2023-02-28T01:11:28;4.40;96.20
21612;DHT22;47005;52.292;13.452;2023-02-28T01:13:54;4.40;96.20
21612;DHT22;47005;52.292;13.452;2023-02-28T01:16:19;4.40;96.20
21612;DHT22;47005;52.292;13.452;2023-02-28T01:18:45;4.40;96.20
21612;DHT22;47005;52.292;13.452;2023-02-28T01:21:13;4.40;96.30
21612;DHT22;47005;52.292;13.452;2023-02-28T01:23:41;4.40;96.30
21612;DHT22;47005;52.292;13.452;2023-02-28T01:26:16;4.40;96.30
21612;DHT22;47005;52.292;13.452;2023-02-28T01:28:41;4.40;96.30
21612;DHT22;47005;52.292;13.452;2023-02-28T01:31:08;4.40;96.70
21612;DHT22;47005;52.292;13.452;2023-02-28T01:33:35;4.30;96.30
21612;DHT22;47005;52.292;13.452;2023-02-28T01:36:02;4.40;96.30
21612;DHT22;47005;52.292;13.452;2023-02-28T01:38:29;4.30;96.40
21612;DHT22;47005;52.292;13.452;2023-02-28T01:40:55;4.30;96.40
21612;DHT22;47005;52.292;13.452;2023-02-28T01:43:29;4.30;96.40
21612;DHT22;47005;52.292;13.452;2023-02-28T01:45:57;4.30;96.40
21612;DHT22;47005;52.292;13.452;2023-02-28T01:48:27;4.30;96.40
21612;DHT22;47005;52.292;13.452;2023-02-28T01:50:56;4.20;96.50
21612;DHT22;47005;52.292;13.452;2023-02-28T01:53:32;4.20;96.50
21612;DHT22;47005;52.292;13.452;2023-02-28T01:55:58;4.10;96.50
21612;DHT22;47005;52.292;13.452;2023-02-28T01:58:24;4.20;96.50
21612;DHT22;47005;52.292;13.452;2023-02-28T02:00:50;4.10;96.50
21612;DHT22;47005;52.292;13.452;2023-02-28T02:03:18;4.10;96.50
21612;DHT22;47005;52.292;13.452;2023-02-28T02:05:45;4.10;96.50
21612;DHT22;47005;52.292;13.452;2023-02-28T02:08:20;4.10;96.60
21612;DHT22;47005;52.292;13.452;2023-02-28T02:10:52;4.00;96.60
21612;DHT22;47005;52.292;13.452;2023-02-28T02:36:07;3.90;96.90
21612;DHT22;47005;52.292;13.452;2023-02-28T02:41:33;3.80;96.90
21612;DHT22;47005;52.292;13.452;2023-02-28T02:44:15;3.80;96.90
21612;DHT22;47005;52.292;13.452;2023-02-28T02:46:44;3.80;96.90
21612;DHT22;47005;52.292;13.452;2023-02-28T02:49:21;3.80;97.00
21612;DHT22;47005;52.292;13.452;2023-02-28T02:51:49;3.80;96.90
21612;DHT22;47005;52.292;13.452;2023-02-28T02:54:18;3.70;96.90
21612;DHT22;47005;52.292;13.452;2023-02-28T02:56:47;3.70;97.00
21612;DHT22;47005;52.292;13.452;2023-02-28T02:59:17;3.70;97.00
21612;DHT22;47005;52.292;13.452;2023-02-28T03:01:50;3.60;96.60
21612;DHT22;47005;52.292;13.452;2023-02-28T03:04:20;3.60;97.00
21612;DHT22;47005;52.292;13.452;2023-02-28T03:06:47;3.60;96.90
21612;DHT22;47005;52.292;13.452;2023-02-28T03:09:13;3.60;97.00
21612;DHT22;47005;52.292;13.452;2023-02-28T03:11:40;3.50;97.00
21612;DHT22;47005;52.292;13.452;2023-02-28T03:20:17;3.40;97.10
21612;DHT22;47005;52.292;13.452;2023-02-28T03:23:21;3.40;97.10
21612;DHT22;47005;52.292;13.452;2023-02-28T03:25:59;3.30;97.10
21612;DHT22;47005;52.292;13.452;2023-02-28T03:33:47;3.30;97.10
21612;DHT22;47005;52.292;13.452;2023-02-28T03:36:23;3.30;97.10
21612;DHT22;47005;52.292;13.452;2023-02-28T03:39:03;3.20;97.10
21612;DHT22;47005;52.292;13.452;2023-02-28T03:41:40;3.20;97.10
21612;DHT22;47005;52.292;13.452;2023-02-28T03:46:49;3.10;97.10
21612;DHT22;47005;52.292;13.452;2023-02-28T03:49:22;3.10;97.10
21612;DHT22;47005;52.292;13.452;2023-02-28T03:51:50;3.10;97.20
21612;DHT22;47005;52.292;13.452;2023-02-28T03:54:19;3.10;97.20
21612;DHT22;47005;52.292;13.452;2023-02-28T03:56:59;3.00;97.20
21612;DHT22;47005;52.292;13.452;2023-02-28T03:59:55;3.00;97.20
21612;DHT22;47005;52.292;13.452;2023-02-28T04:02:18;3.00;97.40
21612;DHT22;47005;52.292;13.452;2023-02-28T04:04:44;3.00;97.20
21612;DHT22;47005;52.292;13.452;2023-02-28T04:07:14;2.90;97.20
21612;DHT22;47005;52.292;13.452;2023-02-28T04:09:39;2.90;97.20
21612;DHT22;47005;52.292;13.452;2023-02-28T04:12:05;2.80;97.20
21612;DHT22;47005;52.292;13.452;2023-02-28T04:14:31;2.90;97.30
21612;DHT22;47005;52.292;13.452;2023-02-28T04:16:57;2.90;97.30
21612;DHT22;47005;52.292;13.452;2023-02-28T04:19:22;2.90;97.20
21612;DHT22;47005;52.292;13.452;2023-02-28T04:21:52;2.80;97.20
21612;DHT22;47005;52.292;13.452;2023-02-28T04:24:21;2.80;97.30
21612;DHT22;47005;52.292;13.452;2023-02-28T04:26:50;2.80;97.20
21612;DHT22;47005;52.292;13.452;2023-02-28T04:29:28;2.70;97.30
21612;DHT22;47005;52.292;13.452;2023-02-28T04:31:54;2.70;97.30
21612;DHT22;47005;52.292;13.452;2023-02-28T04:34:21;2.70;97.30
21612;DHT22;47005;52.292;13.452;2023-02-28T04:36:47;2.70;97.30
21612;DHT22;47005;52.292;13.452;2023-02-28T04:39:19;2.70;97.30
21612;DHT22;47005;52.292;13.452;2023-02-28T04:41:45;2.60;97.40
21612;DHT22;47005;52.292;13.452;2023-02-28T04:44:11;2.60;97.30
21612;DHT22;47005;52.292;13.452;2023-02-28T04:46:37;2.60;97.30
21612;DHT22;47005;52.292;13.452;2023-02-28T04:49:03;2.60;97.40
21612;DHT22;47005;52.292;13.452;2023-02-28T04:51:29;2.60;97.30
21612;DHT22;47005;52.292;13.452;2023-02-28T04:53:55;2.50;97.30
21612;DHT22;47005;52.292;13.452;2023-02-28T04:56:20;2.50;97.30
21612;DHT22;47005;52.292;13.452;2023-02-28T04:58:47;2.50;97.30
21612;DHT22;47005;52.292;13.452;2023-02-28T05:01:28;2.60;97.40
21612;DHT22;47005;52.292;13.452;2023-02-28T05:03:57;2.50;97.30
21612;DHT22;47005;52.292;13.452;2023-02-28T05:06:24;2.40;97.30
21612;DHT22;47005;52.292;13.452;2023-02-28T05:08:52;2.40;97.30
21612;DHT22;47005;52.292;13.452;2023-02-28T05:11:20;2.40;97.40
21612;DHT22;47005;52.292;13.452;2023-02-28T05:13:47;2.40;97.40
21612;DHT22;47005;52.292;13.452;2023-02-28T05:16:13;2.40;97.40
21612;DHT22;47005;52.292;13.452;2023-02-28T05:18:39;2.40;97.40
21612;DHT22;47005;52.292;13.452;2023-02-28T05:21:05;2.30;97.40
21612;DHT22;47005;52.292;13.452;2023-02-28T05:23:31;2.30;97.40
21612;DHT22;47005;52.292;13.452;2023-02-28T05:25:57;2.30;97.40
21612;DHT22;47005;52.292;13.452;2023-02-28T05:28:22;2.30;97.50
21612;DHT22;47005;52.292;13.452;2023-02-28T05:30:48;2.20;97.40
21612;DHT22;47005;52.292;13.452;2023-02-28T05:33:13;2.30;97.50
21612;DHT22;47005;52.292;13.452;2023-02-28T05:35:41;2.20;97.40
21612;DHT22;47005;52.292;13.452;2023-02-28T05:38:08;2.20;97.50
21612;DHT22;47005;52.292;13.452;2023-02-28T05:40:34;2.20;97.50
21612;DHT22;47005;52.292;13.452;2023-02-28T05:42:59;2.20;97.50
21612;DHT22;47005;52.292;13.452;2023-02-28T05:45:25;2.20;97.50
21612;DHT22;47005;52.292;13.452;2023-02-28T05:47:54;2.10;97.50
21612;DHT22;47005;52.292;13.452;2023-02-28T05:50:20;2.20;97.60
21612;DHT22;47005;52.292;13.452;2023-02-28T05:52:52;2.10;97.50
21612;DHT22;47005;52.292;13.452;2023-02-28T05:55:18;2.10;97.60
21612;DHT22;47005;52.292;13.452;2023-02-28T05:57:44;2.10;97.50
21612;DHT22;47005;52.292;13.452;2023-02-28T06:00:10;2.10;97.50
21612;DHT22;47005;52.292;13.452;2023-02-28T06:02:38;2.10;97.60
21612;DHT22;47005;52.292;13.452;2023-02-28T06:05:04;2.10;97.60
21612;DHT22;47005;52.292;13.452;2023-02-28T06:07:30;2.10;97.60
21612;DHT22;47005;52.292;13.452;2023-02-28T06:09:55;2.00;97.60
21612;DHT22;47005;52.292;13.452;2023-02-28T06:12:21;2.10;97.60
21612;DHT22;47005;52.292;13.452;2023-02-28T06:14:46;2.00;97.60
21612;DHT22;47005;52.292;13.452;2023-02-28T06:17:12;2.00;98.00
21612;DHT22;47005;52.292;13.452;2023-02-28T06:19:38;2.00;97.70
21612;DHT22;47005;52.292;13.452;2023-02-28T06:22:07;2.00;97.70
21612;DHT22;47005;52.292;13.452;2023-02-28T06:24:32;2.00;97.80
21612;DHT22;47005;52.292;13.452;2023-02-28T06:26:58;2.00;97.80
21612;DHT22;47005;52.292;13.452;2023-02-28T06:29:31;1.90;97.80
21612;DHT22;47005;52.292;13.452;2023-02-28T06:31:57;2.00;97.90
21612;DHT22;47005;52.292;13.452;2023-02-28T06:34:23;2.00;97.80
21612;DHT22;47005;52.292;13.452;2023-02-28T06:36:50;2.00;97.80
21612;DHT22;47005;52.292;13.452;2023-02-28T06:39:16;2.00;97.80
21612;DHT22;47005;52.292;13.452;2023-02-28T06:41:43;2.00;98.00
21612;DHT22;47005;52.292;13.452;2023-02-28T06:44:15;2.00;97.90
21612;DHT22;47005;52.292;13.452;2023-02-28T06:46:43;2.00;97.90
21612;DHT22;47005;52.292;13.452;2023-02-28T06:49:09;2.00;97.90
21612;DHT22;47005;52.292;13.452;2023-02-28T06:51:36;2.00;97.90
21612;DHT22;47005;52.292;13.452;2023-02-28T06:54:03;2.00;97.90
21612;DHT22;47005;52.292;13.452;2023-02-28T06:56:29;2.00;97.90
21612;DHT22;47005;52.292;13.452;2023-02-28T06:58:54;2.00;97.90
21612;DHT22;47005;52.292;13.452;2023-02-28T07:01:21;2.00;98.00
21612;DHT22;47005;52.292;13.452;2023-02-28T07:03:49;2.00;98.00
21612;DHT22;47005;52.292;13.452;2023-02-28T07:06:18;2.00;98.00
21612;DHT22;47005;52.292;13.452;2023-02-28T07:08:44;2.10;98.00
21612;DHT22;47005;52.292;13.452;2023-02-28T07:11:10;2.10;98.00
21612;DHT22;47005;52.292;13.452;2023-02-28T07:13:36;2.10;98.00
21612;DHT22;47005;52.292;13.452;2023-02-28T07:16:07;2.10;98.40
21612;DHT22;47005;52.292;13.452;2023-02-28T07:18:34;2.10;98.00
21612;DHT22;47005;52.292;13.452;2023-02-28T07:21:08;2.10;98.00
21612;DHT22;47005;52.292;13.452;2023-02-28T07:23:34;2.20;98.10
21612;DHT22;47005;52.292;13.452;2023-02-28T07:26:00;2.20;98.00
21612;DHT22;47005;52.292;13.452;2023-02-28T07:28:26;2.20;98.00
21612;DHT22;47005;52.292;13.452;2023-02-28T07:30:51;2.20;98.00
21612;DHT22;47005;52.292;13.452;2023-02-28T07:33:17;2.30;98.20
21612;DHT22;47005;52.292;13.452;2023-02-28T07:35:43;2.30;98.10
21612;DHT22;47005;52.292;13.452;2023-02-28T07:38:09;2.30;98.10
21612;DHT22;47005;52.292;13.452;2023-02-28T07:40:36;2.40;98.10
21612;DHT22;47005;52.292;13.452;2023-02-28T07:43:02;2.40;98.10
21612;DHT22;47005;52.292;13.452;2023-02-28T07:45:28;2.40;98.10
21612;DHT22;47005;52.292;13.452;2023-02-28T07:47:55;2.50;98.10
21612;DHT22;47005;52.292;13.452;2023-02-28T07:50:21;2.50;98.00
21612;DHT22;47005;52.292;13.452;2023-02-28T07:52:47;2.60;98.10
21612;DHT22;47005;52.292;13.452;2023-02-28T07:55:12;2.60;98.10
21612;DHT22;47005;52.292;13.452;2023-02-28T07:57:40;2.60;98.10
21612;DHT22;47005;52.292;13.452;2023-02-28T08:00:07;2.60;98.00
21612;DHT22;47005;52.292;13.452;2023-02-28T08:02:35;2.70;98.10
21612;DHT22;47005;52.292;13.452;2023-02-28T08:05:01;2.70;98.00
21612;DHT22;47005;52.292;13.452;2023-02-28T08:07:27;2.70;97.80
21612;DHT22;47005;52.292;13.452;2023-02-28T08:09:53;2.80;97.90
21612;DHT22;47005;52.292;13.452;2023-02-28T08:12:19;2.80;97.80
21612;DHT22;47005;52.292;13.452;2023-02-28T08:14:45;2.80;97.80
21612;DHT22;47005;52.292;13.452;2023-02-28T08:17:11;2.80;97.40
21612;DHT22;47005;52.292;13.452;2023-02-28T08:19:37;2.90;97.60
21612;DHT22;47005;52.292;13.452;2023-02-28T08:22:03;2.90;97.60
21612;DHT22;47005;52.292;13.452;2023-02-28T08:24:29;2.90;97.60
21612;DHT22;47005;52.292;13.452;2023-02-28T08:26:55;3.00;97.70
21612;DHT22;47005;52.292;13.452;2023-02-28T08:29:21;3.00;97.40
21612;DHT22;47005;52.292;13.452;2023-02-28T08:31:47;3.00;97.40
21612;DHT22;47005;52.292;13.452;2023-02-28T08:34:14;3.10;97.30
21612;DHT22;47005;52.292;13.452;2023-02-28T08:36:40;3.10;96.90
21612;DHT22;47005;52.292;13.452;2023-02-28T08:39:06;3.10;97.00
21612;DHT22;47005;52.292;13.452;2023-02-28T08:41:33;3.10;96.50
21612;DHT22;47005;52.292;13.452;2023-02-28T08:43:59;3.20;96.70
21612;DHT22;47005;52.292;13.452;2023-02-28T08:46:25;3.20;96.70
21612;DHT22;47005;52.292;13.452;2023-02-28T08:48:53;3.20;97.00
21612;DHT22;47005;52.292;13.452;2023-02-28T08:51:20;3.30;96.30
21612;DHT22;47005;52.292;13.452;2023-02-28T08:54:03;3.30;96.30
21612;DHT22;47005;52.292;13.452;2023-02-28T08:56:29;3.30;96.60
21612;DHT22;47005;52.292;13.452;2023-02-28T08:58:56;3.40;96.80
21612;DHT22;47005;52.292;13.452;2023-02-28T09:01:27;3.40;96.90
21612;DHT22;47005;52.292;13.452;2023-02-28T09:03:54;3.40;97.00
21612;DHT22;47005;52.292;13.452;2023-02-28T09:06:23;3.40;96.90
21612;DHT22;47005;52.292;13.452;2023-02-28T09:08:49;3.50;96.70
21612;DHT22;47005;52.292;13.452;2023-02-28T09:11:15;3.50;96.60
21612;DHT22;47005;52.292;13.452;2023-02-28T09:13:41;3.50;96.40
21612;DHT22;47005;52.292;13.452;2023-02-28T09:16:10;3.60;96.70
21612;DHT22;47005;52.292;13.452;2023-02-28T09:18:37;3.60;96.50
21612;DHT22;47005;52.292;13.452;2023-02-28T09:21:07;3.60;96.30
21612;DHT22;47005;52.292;13.452;2023-02-28T09:23:34;3.70;96.40
21612;DHT22;47005;52.292;13.452;2023-02-28T09:25:59;3.70;96.40
21612;DHT22;47005;52.292;13.452;2023-02-28T09:28:25;3.70;95.20
21612;DHT22;47005;52.292;13.452;2023-02-28T09:30:53;3.70;95.50
21612;DHT22;47005;52.292;13.452;2023-02-28T09:33:20;3.70;95.40
21612;DHT22;47005;52.292;13.452;2023-02-28T09:35:50;3.80;95.10
21612;DHT22;47005;52.292;13.452;2023-02-28T09:38:16;3.80;94.20
21612;DHT22;47005;52.292;13.452;2023-02-28T09:40:50;3.80;94.70
21612;DHT22;47005;52.292;13.452;2023-02-28T09:43:19;3.90;95.10
21612;DHT22;47005;52.292;13.452;2023-02-28T09:45:55;3.90;95.30
21612;DHT22;47005;52.292;13.452;2023-02-28T09:48:32;4.00;94.90
21612;DHT22;47005;52.292;13.452;2023-02-28T09:51:11;3.90;94.30
21612;DHT22;47005;52.292;13.452;2023-02-28T09:53:38;4.00;92.90
21612;DHT22;47005;52.292;13.452;2023-02-28T09:56:11;4.00;94.20
21612;DHT22;47005;52.292;13.452;2023-02-28T10:01:51;4.00;93.20
21612;DHT22;47005;52.292;13.452;2023-02-28T10:04:46;4.10;93.20
21612;DHT22;47005;52.292;13.452;2023-02-28T10:10:27;4.20;92.80
21612;DHT22;47005;52.292;13.452;2023-02-28T10:12:56;4.20;93.40
21612;DHT22;47005;52.292;13.452;2023-02-28T10:15:25;4.20;93.60
21612;DHT22;47005;52.292;13.452;2023-02-28T10:17:54;4.20;91.80
21612;DHT22;47005;52.292;13.452;2023-02-28T10:20:23;4.20;91.90
21612;DHT22;47005;52.292;13.452;2023-02-28T10:23:17;4.30;92.60
21612;DHT22;47005;52.292;13.452;2023-02-28T10:26:08;4.30;91.70
21612;DHT22;47005;52.292;13.452;2023-02-28T10:28:35;4.30;91.70
21612;DHT22;47005;52.292;13.452;2023-02-28T10:31:01;4.40;90.70
21612;DHT22;47005;52.292;13.452;2023-02-28T10:33:33;4.40;91.90
21612;DHT22;47005;52.292;13.452;2023-02-28T10:36:03;4.40;91.80
21612;DHT22;47005;52.292;13.452;2023-02-28T10:38:32;4.40;90.80
21612;DHT22;47005;52.292;13.452;2023-02-28T10:41:09;4.50;90.80
21612;DHT22;47005;52.292;13.452;2023-02-28T10:43:37;4.50;91.60
21612;DHT22;47005;52.292;13.452;2023-02-28T10:46:04;4.50;91.50
21612;DHT22;47005;52.292;13.452;2023-02-28T10:51:01;4.60;91.40
21612;DHT22;47005;52.292;13.452;2023-02-28T10:53:52;4.60;91.50
21612;DHT22;47005;52.292;13.452;2023-02-28T10:56:20;4.60;90.20
21612;DHT22;47005;52.292;13.452;2023-02-28T11:03:47;4.70;90.80
21612;DHT22;47005;52.292;13.452;2023-02-28T11:08:51;4.70;88.40
21612;DHT22;47005;52.292;13.452;2023-02-28T11:11:18;4.70;90.50
21612;DHT22;47005;52.292;13.452;2023-02-28T11:13:46;4.70;90.50
21612;DHT22;47005;52.292;13.452;2023-02-28T11:16:14;4.80;88.20
21612;DHT22;47005;52.292;13.452;2023-02-28T11:21:09;4.80;90.10
21612;DHT22;47005;52.292;13.452;2023-02-28T11:23:40;4.80;90.20
21612;DHT22;47005;52.292;13.452;2023-02-28T11:26:06;4.90;90.10
21612;DHT22;47005;52.292;13.452;2023-02-28T11:28:40;4.90;90.00
21612;DHT22;47005;52.292;13.452;2023-02-28T11:31:16;4.90;90.40
21612;DHT22;47005;52.292;13.452;2023-02-28T11:33:54;4.90;90.60
21612;DHT22;47005;52.292;13.452;2023-02-28T11:36:29;4.90;87.30
21612;DHT22;47005;52.292;13.452;2023-02-28T11:39:00;4.90;88.90
21612;DHT22;47005;52.292;13.452;2023-02-28T11:46:54;5.00;88.40
21612;DHT22;47005;52.292;13.452;2023-02-28T11:57:25;5.10;89.30
21612;DHT22;47005;52.292;13.452;2023-02-28T12:05:45;5.20;88.30
21612;DHT22;47005;52.292;13.452;2023-02-28T12:11:12;5.20;88.00
21612;DHT22;47005;52.292;13.452;2023-02-28T12:14:13;5.30;88.90
21612;DHT22;47005;52.292;13.452;2023-02-28T12:17:00;5.30;87.80
21612;DHT22;47005;52.292;13.452;2023-02-28T12:27:44;5.40;89.20
21612;DHT22;47005;52.292;13.452;2023-02-28T12:30:28;5.40;87.00
21612;DHT22;47005;52.292;13.452;2023-02-28T12:33:08;5.40;88.00
21612;DHT22;47005;52.292;13.452;2023-02-28T12:35:51;5.50;88.50
21612;DHT22;47005;52.292;13.452;2023-02-28T12:38:52;5.50;88.40
21612;DHT22;47005;52.292;13.452;2023-02-28T12:41:44;5.50;88.20
21612;DHT22;47005;52.292;13.452;2023-02-28T12:46:49;5.60;88.50
21612;DHT22;47005;52.292;13.452;2023-02-28T12:49:25;5.60;88.10
21612;DHT22;47005;52.292;13.452;2023-02-28T12:51:53;5.60;87.00
21612;DHT22;47005;52.292;13.452;2023-02-28T12:54:25;5.70;86.20
21612;DHT22;47005;52.292;13.452;2023-02-28T12:57:06;5.70;86.20
21612;DHT22;47005;52.292;13.452;2023-02-28T12:59:59;5.70;87.30
21612;DHT22;47005;52.292;13.452;2023-02-28T13:05:33;5.80;86.70
21612;DHT22;47005;52.292;13.452;2023-02-28T13:11:41;5.80;88.10
21612;DHT22;47005;52.292;13.452;2023-02-28T13:19:21;5.90;86.30
21612;DHT22;47005;52.292;13.452;2023-02-28T13:21:50;5.90;86.20
21612;DHT22;47005;52.292;13.452;2023-02-28T13:24:50;5.90;83.80
21612;DHT22;47005;52.292;13.452;2023-02-28T13:27:37;6.00;86.20
21612;DHT22;47005;52.292;13.452;2023-02-28T13:38:42;6.00;85.80
21612;DHT22;47005;52.292;13.452;2023-02-28T13:46:27;6.00;86.00
21612;DHT22;47005;52.292;13.452;2023-02-28T13:48:53;6.10;85.40
21612;DHT22;47005;52.292;13.452;2023-02-28T13:51:42;6.10;86.70
21612;DHT22;47005;52.292;13.452;2023-02-28T14:03:10;6.30;84.90
21612;DHT22;47005;52.292;13.452;2023-02-28T14:05:38;6.30;86.70
21612;DHT22;47005;52.292;13.452;2023-02-28T14:08:16;6.40;86.70
21612;DHT22;47005;52.292;13.452;2023-02-28T14:10:48;6.50;84.60
21612;DHT22;47005;52.292;13.452;2023-02-28T14:13:40;6.70;86.00
21612;DHT22;47005;52.292;13.452;2023-02-28T14:16:20;6.90;82.10
21612;DHT22;47005;52.292;13.452;2023-02-28T14:18:56;7.10;83.80
21612;DHT22;47005;52.292;13.452;2023-02-28T14:21:30;7.40;85.70
21612;DHT22;47005;52.292;13.452;2023-02-28T14:32:33;8.10;82.50
21612;DHT22;47005;52.292;13.452;2023-02-28T14:37:47;8.30;82.50
21612;DHT22;47005;52.292;13.452;2023-02-28T14:40:29;8.40;82.80
21612;DHT22;47005;52.292;13.452;2023-02-28T14:42:57;8.50;81.20
21612;DHT22;47005;52.292;13.452;2023-02-28T14:45:27;8.60;81.10
21612;DHT22;47005;52.292;13.452;2023-02-28T14:47:54;8.60;81.60
21612;DHT22;47005;52.292;13.452;2023-02-28T14:50:23;8.60;80.60
21612;DHT22;47005;52.292;13.452;2023-02-28T14:52:53;8.70;81.00
21612;DHT22;47005;52.292;13.452;2023-02-28T14:55:24;8.70;77.20
21612;DHT22;47005;52.292;13.452;2023-02-28T14:57:54;8.80;78.80
21612;DHT22;47005;52.292;13.452;2023-02-28T15:00:24;8.90;78.60
21612;DHT22;47005;52.292;13.452;2023-02-28T15:02:51;9.00;79.30
21612;DHT22;47005;52.292;13.452;2023-02-28T15:08:04;9.50;79.20
21612;DHT22;47005;52.292;13.452;2023-02-28T15:10:31;9.70;78.80
21612;DHT22;47005;52.292;13.452;2023-02-28T15:13:10;10.00;78.00
21612;DHT22;47005;52.292;13.452;2023-02-28T15:18:36;10.30;75.30
21612;DHT22;47005;52.292;13.452;2023-02-28T15:21:07;10.40;76.70
21612;DHT22;47005;52.292;13.452;2023-02-28T15:23:36;10.40;75.40
21612;DHT22;47005;52.292;13.452;2023-02-28T15:26:02;10.30;74.60
21612;DHT22;47005;52.292;13.452;2023-02-28T15:28:28;10.20;76.20
21612;DHT22;47005;52.292;13.452;2023-02-28T15:31:01;10.10;75.50
21612;DHT22;47005;52.292;13.452;2023-02-28T15:33:33;10.00;75.10
21612;DHT22;47005;52.292;13.452;2023-02-28T15:38:36;9.80;75.80
21612;DHT22;47005;52.292;13.452;2023-02-28T15:41:02;9.70;75.50
21612;DHT22;47005;52.292;13.452;2023-02-28T15:43:36;9.50;75.70
21612;DHT22;47005;52.292;13.452;2023-02-28T15:46:10;9.40;76.00
21612;DHT22;47005;52.292;13.452;2023-02-28T15:48:53;9.20;76.70
21612;DHT22;47005;52.292;13.452;2023-02-28T15:51:22;9.00;77.90
21612;DHT22;47005;52.292;13.452;2023-02-28T15:53:56;8.90;77.60
21612;DHT22;47005;52.292;13.452;2023-02-28T15:56:32;8.70;77.30
21612;DHT22;47005;52.292;13.452;2023-02-28T15:59:02;8.60;78.40
21612;DHT22;47005;52.292;13.452;2023-02-28T16:01:36;8.40;78.50
21612;DHT22;47005;52.292;13.452;2023-02-28T16:04:05;8.30;79.20
21612;DHT22;47005;52.292;13.452;2023-02-28T16:06:42;8.10;77.90
21612;DHT22;47005;52.292;13.452;2023-02-28T16:09:16;8.10;78.80
21612;DHT22;47005;52.292;13.452;2023-02-28T16:11:53;8.00;79.40
21612;DHT22;47005;52.292;13.452;2023-02-28T16:14:24;7.80;79.20
21612;DHT22;47005;52.292;13.452;2023-02-28T16:16:53;7.80;79.80
21612;DHT22;47005;52.292;13.452;2023-02-28T16:19:20;7.70;80.60
21612;DHT22;47005;52.292;13.452;2023-02-28T16:21:46;7.60;80.40
21612;DHT22;47005;52.292;13.452;2023-02-28T16:24:13;7.50;81.30
21612;DHT22;47005;52.292;13.452;2023-02-28T16:26:41;7.50;81.30
21612;DHT22;47005;52.292;13.452;2023-02-28T16:29:09;7.40;81.70
21612;DHT22;47005;52.292;13.452;2023-02-28T16:31:38;7.40;82.80
21612;DHT22;47005;52.292;13.452;2023-02-28T16:34:04;7.30;81.70
21612;DHT22;47005;52.292;13.452;2023-02-28T16:36:30;7.20;82.30
21612;DHT22;47005;52.292;13.452;2023-02-28T16:38:56;7.10;82.20
21612;DHT22;47005;52.292;13.452;2023-02-28T16:41:24;7.10;82.60
21612;DHT22;47005;52.292;13.452;2023-02-28T16:43:53;7.10;82.30
21612;DHT22;47005;52.292;13.452;2023-02-28T16:46:20;7.00;81.80
21612;DHT22;47005;52.292;13.452;2023-02-28T16:48:46;6.90;82.80
21612;DHT22;47005;52.292;13.452;2023-02-28T16:51:15;6.90;82.60
21612;DHT22;47005;52.292;13.452;2023-02-28T16:53:42;6.80;83.00
21612;DHT22;47005;52.292;13.452;2023-02-28T16:56:22;6.70;83.60
21612;DHT22;47005;52.292;13.452;2023-02-28T16:58:50;6.60;83.80
21612;DHT22;47005;52.292;13.452;2023-02-28T17:01:17;6.60;84.30
21612;DHT22;47005;52.292;13.452;2023-02-28T17:03:47;6.50;84.30
21612;DHT22;47005;52.292;13.452;2023-02-28T17:06:22;6.50;84.60
21612;DHT22;47005;52.292;13.452;2023-02-28T17:08:51;6.50;84.80
21612;DHT22;47005;52.292;13.452;2023-02-28T17:11:18;6.40;85.00
21612;DHT22;47005;52.292;13.452;2023-02-28T17:13:44;6.30;85.20
21612;DHT22;47005;52.292;13.452;2023-02-28T17:16:33;6.30;85.30
21612;DHT22;47005;52.292;13.452;2023-02-28T17:19:01;6.20;85.30
21612;DHT22;47005;52.292;13.452;2023-02-28T17:21:28;6.20;85.60
21612;DHT22;47005;52.292;13.452;2023-02-28T17:23:53;6.10;85.50
21612;DHT22;47005;52.292;13.452;2023-02-28T17:26:21;6.10;85.70
21612;DHT22;47005;52.292;13.452;2023-02-28T17:28:48;6.10;85.70
21612;DHT22;47005;52.292;13.452;2023-02-28T17:31:15;6.00;85.50
21612;DHT22;47005;52.292;13.452;2023-02-28T17:33:41;6.00;85.80
21612;DHT22;47005;52.292;13.452;2023-02-28T17:36:13;5.90;85.70
21612;DHT22;47005;52.292;13.452;2023-02-28T17:38:39;5.90;86.00
21612;DHT22;47005;52.292;13.452;2023-02-28T17:41:05;5.80;86.00
21612;DHT22;47005;52.292;13.452;2023-02-28T17:43:30;5.70;85.50
21612;DHT22;47005;52.292;13.452;2023-02-28T17:45:56;5.70;85.30
21612;DHT22;47005;52.292;13.452;2023-02-28T17:48:23;5.70;85.30
21612;DHT22;47005;52.292;13.452;2023-02-28T17:50:49;5.70;85.70
21612;DHT22;47005;52.292;13.452;2023-02-28T17:53:15;5.60;85.60
21612;DHT22;47005;52.292;13.452;2023-02-28T17:55:40;5.60;85.80
21612;DHT22;47005;52.292;13.452;2023-02-28T17:58:09;5.50;86.00
21612;DHT22;47005;52.292;13.452;2023-02-28T18:00:36;5.50;85.90
21612;DHT22;47005;52.292;13.452;2023-02-28T18:03:03;5.40;86.00
21612;DHT22;47005;52.292;13.452;2023-02-28T18:05:29;5.50;85.90
21612;DHT22;47005;52.292;13.452;2023-02-28T18:07:55;5.40;85.70
21612;DHT22;47005;52.292;13.452;2023-02-28T18:10:22;5.30;85.90